sensor_id;sensor_type;location;lat;lon;timestamp;P1;durP1;ratioP1;P2;durP2;ratioP2
49440;SDS011;35317;51.978;6.296;2023-06-22T00:01:57;9.13;;;7.18;;
49440;SDS011;35317;51.978;6.296;2023-06-22T00:06:58;8.25;;;6.45;;
49440;SDS011;35317;51.978;6.296;2023-06-22T00:11:59;9.25;;;6.28;;
49440;SDS011;35317;51.978;6.296;2023-06-22T00:17:00;11.18;;;6.55;;
49440;SDS011;35317;51.978;6.296;2023-06-22T00:22:01;7.72;;;5.68;;
49440;SDS011;35317;51.978;6.296;2023-06-22T00:27:03;9.13;;;6.22;;
49440;SDS011;35317;51.978;6.296;2023-06-22T00:32:05;9.60;;;6.40;;
49440;SDS011;35317;51.978;6.296;2023-06-22T00:37:06;9.65;;;6.30;;
49440;SDS011;35317;51.978;6.296;2023-06-22T00:42:07;10.70;;;6.78;;
49440;SDS011;35317;51.978;6.296;2023-06-22T00:47:08;9.13;;;6.18;;
49440;SDS011;35317;51.978;6.296;2023-06-22T00:52:09;9.95;;;7.00;;
49440;SDS011;35317;51.978;6.296;2023-06-22T00:57:14;10.23;;;6.50;;
49440;SDS011;35317;51.978;6.296;2023-06-22T01:02:18;10.50;;;7.50;;
49440;SDS011;35317;51.978;6.296;2023-06-22T01:07:21;8.70;;;6.75;;
49440;SDS011;35317;51.978;6.296;2023-06-22T01:12:32;8.00;;;6.13;;
49440;SDS011;35317;51.978;6.296;2023-06-22T01:17:40;10.25;;;6.50;;
49440;SDS011;35317;51.978;6.296;2023-06-22T01:28:17;8.95;;;6.55;;
49440;SDS011;35317;51.978;6.296;2023-06-22T01:38:24;11.05;;;6.97;;
49440;SDS011;35317;51.978;6.296;2023-06-22T01:43:26;9.27;;;6.82;;
49440;SDS011;35317;51.978;6.296;2023-06-22T01:48:28;9.27;;;7.07;;
49440;SDS011;35317;51.978;6.296;2023-06-22T01:53:29;10.13;;;7.35;;
49440;SDS011;35317;51.978;6.296;2023-06-22T01:58:30;13.48;;;7.95;;
49440;SDS011;35317;51.978;6.296;2023-06-22T02:03:34;11.52;;;7.80;;
49440;SDS011;35317;51.978;6.296;2023-06-22T02:08:59;10.30;;;7.20;;
49440;SDS011;35317;51.978;6.296;2023-06-22T02:14:05;10.82;;;8.05;;
49440;SDS011;35317;51.978;6.296;2023-06-22T02:19:07;12.93;;;8.05;;
49440;SDS011;35317;51.978;6.296;2023-06-22T02:24:08;10.75;;;7.43;;
49440;SDS011;35317;51.978;6.296;2023-06-22T02:29:09;13.00;;;8.38;;
49440;SDS011;35317;51.978;6.296;2023-06-22T02:34:09;9.40;;;7.03;;
49440;SDS011;35317;51.978;6.296;2023-06-22T02:39:10;13.07;;;7.40;;
49440;SDS011;35317;51.978;6.296;2023-06-22T02:44:11;12.98;;;7.57;;
49440;SDS011;35317;51.978;6.296;2023-06-22T02:49:12;12.32;;;8.73;;
49440;SDS011;35317;51.978;6.296;2023-06-22T02:54:13;12.00;;;8.07;;
49440;SDS011;35317;51.978;6.296;2023-06-22T02:59:14;12.90;;;8.65;;
49440;SDS011;35317;51.978;6.296;2023-06-22T03:04:14;10.98;;;8.40;;
49440;SDS011;35317;51.978;6.296;2023-06-22T03:09:16;13.13;;;9.02;;
49440;SDS011;35317;51.978;6.296;2023-06-22T03:14:17;10.60;;;8.18;;
49440;SDS011;35317;51.978;6.296;2023-06-22T03:19:17;10.70;;;8.30;;
49440;SDS011;35317;51.978;6.296;2023-06-22T03:24:19;14.27;;;9.52;;
49440;SDS011;35317;51.978;6.296;2023-06-22T03:29:20;15.57;;;9.60;;
49440;SDS011;35317;51.978;6.296;2023-06-22T03:34:21;15.80;;;9.85;;
49440;SDS011;35317;51.978;6.296;2023-06-22T03:39:22;13.38;;;9.20;;
49440;SDS011;35317;51.978;6.296;2023-06-22T03:44:23;13.60;;;9.20;;
49440;SDS011;35317;51.978;6.296;2023-06-22T03:49:24;12.25;;;9.18;;
49440;SDS011;35317;51.978;6.296;2023-06-22T03:54:24;15.18;;;10.98;;
49440;SDS011;35317;51.978;6.296;2023-06-22T03:59:26;15.52;;;10.70;;
49440;SDS011;35317;51.978;6.296;2023-06-22T04:04:27;16.02;;;11.00;;
49440;SDS011;35317;51.978;6.296;2023-06-22T04:09:28;16.08;;;11.82;;
49440;SDS011;35317;51.978;6.296;2023-06-22T04:14:28;17.85;;;12.38;;
49440;SDS011;35317;51.978;6.296;2023-06-22T04:19:29;19.02;;;12.73;;
49440;SDS011;35317;51.978;6.296;2023-06-22T04:24:30;18.55;;;12.93;;
49440;SDS011;35317;51.978;6.296;2023-06-22T04:29:31;18.88;;;13.48;;
49440;SDS011;35317;51.978;6.296;2023-06-22T04:34:32;19.63;;;14.77;;
49440;SDS011;35317;51.978;6.296;2023-06-22T04:39:33;19.77;;;13.98;;
49440;SDS011;35317;51.978;6.296;2023-06-22T04:44:33;22.17;;;15.20;;
49440;SDS011;35317;51.978;6.296;2023-06-22T04:49:35;23.63;;;16.35;;
49440;SDS011;35317;51.978;6.296;2023-06-22T04:54:40;23.65;;;15.88;;
49440;SDS011;35317;51.978;6.296;2023-06-22T04:59:47;24.77;;;16.67;;
49440;SDS011;35317;51.978;6.296;2023-06-22T05:04:48;23.83;;;16.35;;
49440;SDS011;35317;51.978;6.296;2023-06-22T05:09:51;25.00;;;17.63;;
49440;SDS011;35317;51.978;6.296;2023-06-22T05:14:51;25.73;;;17.73;;
49440;SDS011;35317;51.978;6.296;2023-06-22T05:19:53;24.02;;;17.25;;
49440;SDS011;35317;51.978;6.296;2023-06-22T05:24:55;25.52;;;17.88;;
49440;SDS011;35317;51.978;6.296;2023-06-22T05:29:56;24.20;;;16.70;;
49440;SDS011;35317;51.978;6.296;2023-06-22T05:34:56;22.02;;;16.33;;
49440;SDS011;35317;51.978;6.296;2023-06-22T05:39:57;24.92;;;16.70;;
49440;SDS011;35317;51.978;6.296;2023-06-22T05:44:58;20.35;;;14.68;;
49440;SDS011;35317;51.978;6.296;2023-06-22T05:49:59;21.65;;;14.88;;
49440;SDS011;35317;51.978;6.296;2023-06-22T05:55:00;22.45;;;15.25;;
49440;SDS011;35317;51.978;6.296;2023-06-22T06:00:02;20.30;;;14.55;;
49440;SDS011;35317;51.978;6.296;2023-06-22T06:05:07;19.10;;;14.52;;
49440;SDS011;35317;51.978;6.296;2023-06-22T06:10:08;21.00;;;14.75;;
49440;SDS011;35317;51.978;6.296;2023-06-22T06:15:10;20.83;;;14.13;;
49440;SDS011;35317;51.978;6.296;2023-06-22T06:20:11;18.42;;;13.90;;
49440;SDS011;35317;51.978;6.296;2023-06-22T06:25:12;18.35;;;13.68;;
49440;SDS011;35317;51.978;6.296;2023-06-22T06:30:17;17.73;;;13.05;;
49440;SDS011;35317;51.978;6.296;2023-06-22T06:35:18;16.42;;;13.07;;
49440;SDS011;35317;51.978;6.296;2023-06-22T06:40:19;20.25;;;13.23;;
49440;SDS011;35317;51.978;6.296;2023-06-22T06:45:21;17.58;;;12.18;;
49440;SDS011;35317;51.978;6.296;2023-06-22T06:50:23;16.85;;;11.82;;
49440;SDS011;35317;51.978;6.296;2023-06-22T06:55:24;18.80;;;12.75;;
49440;SDS011;35317;51.978;6.296;2023-06-22T07:00:25;15.23;;;11.23;;
49440;SDS011;35317;51.978;6.296;2023-06-22T07:05:26;14.35;;;11.43;;
49440;SDS011;35317;51.978;6.296;2023-06-22T07:10:27;13.60;;;11.48;;
49440;SDS011;35317;51.978;6.296;2023-06-22T07:15:29;14.80;;;10.80;;
49440;SDS011;35317;51.978;6.296;2023-06-22T07:20:29;15.27;;;11.52;;
49440;SDS011;35317;51.978;6.296;2023-06-22T07:25:30;14.40;;;10.35;;
49440;SDS011;35317;51.978;6.296;2023-06-22T07:30:31;12.07;;;9.57;;
49440;SDS011;35317;51.978;6.296;2023-06-22T07:35:33;13.30;;;10.98;;
49440;SDS011;35317;51.978;6.296;2023-06-22T07:40:34;16.40;;;11.23;;
49440;SDS011;35317;51.978;6.296;2023-06-22T07:45:37;16.42;;;11.93;;
49440;SDS011;35317;51.978;6.296;2023-06-22T07:50:40;14.25;;;10.80;;
49440;SDS011;35317;51.978;6.296;2023-06-22T07:55:41;17.45;;;11.13;;
49440;SDS011;35317;51.978;6.296;2023-06-22T08:00:41;17.80;;;12.00;;
49440;SDS011;35317;51.978;6.296;2023-06-22T08:05:42;16.45;;;11.13;;
49440;SDS011;35317;51.978;6.296;2023-06-22T08:10:43;14.50;;;11.40;;
49440;SDS011;35317;51.978;6.296;2023-06-22T08:15:44;12.85;;;10.30;;
49440;SDS011;35317;51.978;6.296;2023-06-22T08:20:44;15.80;;;10.57;;
49440;SDS011;35317;51.978;6.296;2023-06-22T08:25:45;12.75;;;10.18;;
49440;SDS011;35317;51.978;6.296;2023-06-22T08:30:48;12.93;;;10.27;;
49440;SDS011;35317;51.978;6.296;2023-06-22T08:35:48;10.48;;;8.27;;
49440;SDS011;35317;51.978;6.296;2023-06-22T08:40:50;10.30;;;8.50;;
49440;SDS011;35317;51.978;6.296;2023-06-22T08:45:50;13.20;;;8.75;;
49440;SDS011;35317;51.978;6.296;2023-06-22T08:50:51;10.80;;;7.85;;
49440;SDS011;35317;51.978;6.296;2023-06-22T08:55:52;10.20;;;8.55;;
49440;SDS011;35317;51.978;6.296;2023-06-22T09:00:53;10.35;;;8.00;;
49440;SDS011;35317;51.978;6.296;2023-06-22T09:05:54;12.02;;;7.50;;
49440;SDS011;35317;51.978;6.296;2023-06-22T09:10:54;11.70;;;8.20;;
49440;SDS011;35317;51.978;6.296;2023-06-22T09:15:55;11.13;;;7.13;;
49440;SDS011;35317;51.978;6.296;2023-06-22T09:20:56;7.63;;;5.88;;
49440;SDS011;35317;51.978;6.296;2023-06-22T09:25:57;11.10;;;6.72;;
49440;SDS011;35317;51.978;6.296;2023-06-22T09:30:58;8.98;;;6.90;;
49440;SDS011;35317;51.978;6.296;2023-06-22T09:35:59;10.88;;;6.32;;
49440;SDS011;35317;51.978;6.296;2023-06-22T09:41:00;7.55;;;5.88;;
49440;SDS011;35317;51.978;6.296;2023-06-22T09:46:01;9.02;;;7.00;;
49440;SDS011;35317;51.978;6.296;2023-06-22T09:51:02;7.88;;;6.25;;
49440;SDS011;35317;51.978;6.296;2023-06-22T09:56:03;12.88;;;6.97;;
49440;SDS011;35317;51.978;6.296;2023-06-22T10:01:06;8.13;;;6.18;;
49440;SDS011;35317;51.978;6.296;2023-06-22T10:06:07;9.13;;;6.85;;
49440;SDS011;35317;51.978;6.296;2023-06-22T10:11:08;8.88;;;6.53;;
49440;SDS011;35317;51.978;6.296;2023-06-22T10:16:09;8.50;;;6.35;;
49440;SDS011;35317;51.978;6.296;2023-06-22T10:21:10;8.77;;;6.25;;
49440;SDS011;35317;51.978;6.296;2023-06-22T10:26:11;7.82;;;6.35;;
49440;SDS011;35317;51.978;6.296;2023-06-22T10:31:11;6.95;;;6.25;;
49440;SDS011;35317;51.978;6.296;2023-06-22T10:36:12;8.40;;;6.20;;
49440;SDS011;35317;51.978;6.296;2023-06-22T10:41:13;11.77;;;6.30;;
49440;SDS011;35317;51.978;6.296;2023-06-22T10:46:14;10.85;;;6.88;;
49440;SDS011;35317;51.978;6.296;2023-06-22T10:51:15;8.52;;;6.85;;
49440;SDS011;35317;51.978;6.296;2023-06-22T10:56:16;9.95;;;6.55;;
49440;SDS011;35317;51.978;6.296;2023-06-22T11:01:18;8.93;;;6.63;;
49440;SDS011;35317;51.978;6.296;2023-06-22T11:06:20;10.50;;;7.07;;
49440;SDS011;35317;51.978;6.296;2023-06-22T11:11:21;10.18;;;6.90;;
49440;SDS011;35317;51.978;6.296;2023-06-22T11:16:22;9.70;;;7.18;;
49440;SDS011;35317;51.978;6.296;2023-06-22T11:21:23;8.07;;;6.63;;
49440;SDS011;35317;51.978;6.296;2023-06-22T11:26:24;10.23;;;6.38;;
49440;SDS011;35317;51.978;6.296;2023-06-22T11:31:27;9.55;;;5.70;;
49440;SDS011;35317;51.978;6.296;2023-06-22T11:36:28;8.30;;;6.28;;
49440;SDS011;35317;51.978;6.296;2023-06-22T11:41:32;8.07;;;6.32;;
49440;SDS011;35317;51.978;6.296;2023-06-22T11:46:33;8.93;;;5.70;;
49440;SDS011;35317;51.978;6.296;2023-06-22T11:51:35;8.20;;;6.40;;
49440;SDS011;35317;51.978;6.296;2023-06-22T11:56:36;7.43;;;6.60;;
49440;SDS011;35317;51.978;6.296;2023-06-22T12:01:37;8.70;;;6.75;;
49440;SDS011;35317;51.978;6.296;2023-06-22T12:06:38;11.60;;;8.02;;
49440;SDS011;35317;51.978;6.296;2023-06-22T12:11:41;10.77;;;8.43;;
49440;SDS011;35317;51.978;6.296;2023-06-22T12:16:42;12.07;;;9.27;;
49440;SDS011;35317;51.978;6.296;2023-06-22T12:21:44;12.02;;;9.15;;
49440;SDS011;35317;51.978;6.296;2023-06-22T12:26:49;11.82;;;9.77;;
49440;SDS011;35317;51.978;6.296;2023-06-22T12:31:50;13.55;;;9.70;;
49440;SDS011;35317;51.978;6.296;2023-06-22T12:36:50;11.23;;;8.98;;
49440;SDS011;35317;51.978;6.296;2023-06-22T12:41:54;15.07;;;10.02;;
49440;SDS011;35317;51.978;6.296;2023-06-22T12:46:56;11.40;;;9.85;;
49440;SDS011;35317;51.978;6.296;2023-06-22T12:51:57;13.73;;;10.40;;
49440;SDS011;35317;51.978;6.296;2023-06-22T12:56:58;12.23;;;10.50;;
49440;SDS011;35317;51.978;6.296;2023-06-22T13:01:58;14.73;;;11.07;;
49440;SDS011;35317;51.978;6.296;2023-06-22T13:06:59;15.90;;;12.02;;
49440;SDS011;35317;51.978;6.296;2023-06-22T13:12:00;16.00;;;11.43;;
49440;SDS011;35317;51.978;6.296;2023-06-22T13:17:01;24.52;;;13.52;;
49440;SDS011;35317;51.978;6.296;2023-06-22T13:22:02;16.20;;;12.80;;
49440;SDS011;35317;51.978;6.296;2023-06-22T13:27:04;17.10;;;13.40;;
49440;SDS011;35317;51.978;6.296;2023-06-22T13:32:07;14.38;;;12.45;;
49440;SDS011;35317;51.978;6.296;2023-06-22T13:37:09;18.15;;;14.60;;
49440;SDS011;35317;51.978;6.296;2023-06-22T13:42:09;18.92;;;14.52;;
49440;SDS011;35317;51.978;6.296;2023-06-22T13:47:10;18.42;;;14.73;;
49440;SDS011;35317;51.978;6.296;2023-06-22T13:52:20;21.35;;;15.57;;
49440;SDS011;35317;51.978;6.296;2023-06-22T13:57:21;19.65;;;15.02;;
49440;SDS011;35317;51.978;6.296;2023-06-22T14:02:22;18.25;;;13.75;;
49440;SDS011;35317;51.978;6.296;2023-06-22T14:07:23;16.70;;;13.40;;
49440;SDS011;35317;51.978;6.296;2023-06-22T14:12:24;18.23;;;14.77;;
49440;SDS011;35317;51.978;6.296;2023-06-22T14:17:25;17.58;;;13.77;;
49440;SDS011;35317;51.978;6.296;2023-06-22T14:22:26;18.45;;;14.75;;
49440;SDS011;35317;51.978;6.296;2023-06-22T14:27:29;18.40;;;14.38;;
49440;SDS011;35317;51.978;6.296;2023-06-22T14:32:30;20.02;;;16.02;;
49440;SDS011;35317;51.978;6.296;2023-06-22T14:37:33;21.60;;;15.63;;
49440;SDS011;35317;51.978;6.296;2023-06-22T14:42:34;20.08;;;16.23;;
49440;SDS011;35317;51.978;6.296;2023-06-22T14:47:35;18.90;;;15.60;;
49440;SDS011;35317;51.978;6.296;2023-06-22T14:52:36;21.90;;;15.38;;
49440;SDS011;35317;51.978;6.296;2023-06-22T14:57:37;20.13;;;16.42;;
49440;SDS011;35317;51.978;6.296;2023-06-22T15:02:38;19.63;;;15.57;;
49440;SDS011;35317;51.978;6.296;2023-06-22T15:07:38;20.52;;;15.75;;
49440;SDS011;35317;51.978;6.296;2023-06-22T15:12:39;21.70;;;16.00;;
49440;SDS011;35317;51.978;6.296;2023-06-22T15:17:40;21.13;;;16.45;;
49440;SDS011;35317;51.978;6.296;2023-06-22T15:22:41;22.08;;;15.88;;
49440;SDS011;35317;51.978;6.296;2023-06-22T15:27:42;22.65;;;16.77;;
49440;SDS011;35317;51.978;6.296;2023-06-22T15:32:45;22.23;;;16.75;;
49440;SDS011;35317;51.978;6.296;2023-06-22T15:37:47;22.10;;;16.63;;
49440;SDS011;35317;51.978;6.296;2023-06-22T15:42:51;25.02;;;17.73;;
49440;SDS011;35317;51.978;6.296;2023-06-22T15:47:52;21.27;;;15.85;;
49440;SDS011;35317;51.978;6.296;2023-06-22T15:52:53;25.38;;;17.30;;
49440;SDS011;35317;51.978;6.296;2023-06-22T15:57:54;22.33;;;16.35;;
49440;SDS011;35317;51.978;6.296;2023-06-22T16:02:55;28.35;;;18.83;;
49440;SDS011;35317;51.978;6.296;2023-06-22T16:07:57;24.75;;;17.33;;
49440;SDS011;35317;51.978;6.296;2023-06-22T16:12:58;31.15;;;18.17;;
49440;SDS011;35317;51.978;6.296;2023-06-22T16:17:58;22.90;;;15.63;;
49440;SDS011;35317;51.978;6.296;2023-06-22T16:22:59;28.13;;;18.05;;
49440;SDS011;35317;51.978;6.296;2023-06-22T16:28:00;25.48;;;18.08;;
49440;SDS011;35317;51.978;6.296;2023-06-22T16:33:02;35.45;;;18.55;;
49440;SDS011;35317;51.978;6.296;2023-06-22T16:38:03;32.28;;;19.05;;
49440;SDS011;35317;51.978;6.296;2023-06-22T16:48:57;29.15;;;19.17;;
49440;SDS011;35317;51.978;6.296;2023-06-22T16:54:11;28.42;;;18.90;;
49440;SDS011;35317;51.978;6.296;2023-06-22T17:00:33;33.35;;;19.77;;
49440;SDS011;35317;51.978;6.296;2023-06-22T17:05:34;37.80;;;21.13;;
49440;SDS011;35317;51.978;6.296;2023-06-22T17:10:36;33.67;;;20.70;;
49440;SDS011;35317;51.978;6.296;2023-06-22T17:21:12;34.92;;;20.92;;
49440;SDS011;35317;51.978;6.296;2023-06-22T17:26:13;38.25;;;21.48;;
49440;SDS011;35317;51.978;6.296;2023-06-22T17:31:22;36.58;;;21.38;;
49440;SDS011;35317;51.978;6.296;2023-06-22T17:36:24;39.63;;;23.65;;
49440;SDS011;35317;51.978;6.296;2023-06-22T17:46:57;32.63;;;21.48;;
49440;SDS011;35317;51.978;6.296;2023-06-22T17:51:59;34.60;;;21.52;;
49440;SDS011;35317;51.978;6.296;2023-06-22T17:57:01;40.50;;;22.33;;
49440;SDS011;35317;51.978;6.296;2023-06-22T18:02:05;39.58;;;22.20;;
49440;SDS011;35317;51.978;6.296;2023-06-22T18:07:08;44.45;;;23.23;;
49440;SDS011;35317;51.978;6.296;2023-06-22T18:12:10;36.03;;;21.35;;
49440;SDS011;35317;51.978;6.296;2023-06-22T18:23:29;38.03;;;20.95;;
49440;SDS011;35317;51.978;6.296;2023-06-22T18:28:39;35.88;;;20.98;;
49440;SDS011;35317;51.978;6.296;2023-06-22T18:52:41;30.45;;;16.08;;
49440;SDS011;35317;51.978;6.296;2023-06-22T18:57:42;30.27;;;17.67;;
49440;SDS011;35317;51.978;6.296;2023-06-22T19:07:55;33.72;;;18.63;;
49440;SDS011;35317;51.978;6.296;2023-06-22T19:13:19;31.25;;;17.17;;
49440;SDS011;35317;51.978;6.296;2023-06-22T19:18:33;30.33;;;16.58;;
49440;SDS011;35317;51.978;6.296;2023-06-22T19:23:37;29.70;;;17.15;;
49440;SDS011;35317;51.978;6.296;2023-06-22T19:28:53;36.70;;;17.88;;
49440;SDS011;35317;51.978;6.296;2023-06-22T19:34:03;28.35;;;16.90;;
49440;SDS011;35317;51.978;6.296;2023-06-22T19:45:20;24.02;;;14.30;;
49440;SDS011;35317;51.978;6.296;2023-06-22T19:50:21;22.80;;;13.20;;
49440;SDS011;35317;51.978;6.296;2023-06-22T19:55:22;23.17;;;12.02;;
49440;SDS011;35317;51.978;6.296;2023-06-22T20:00:23;22.90;;;11.77;;
49440;SDS011;35317;51.978;6.296;2023-06-22T20:05:24;21.55;;;11.88;;
49440;SDS011;35317;51.978;6.296;2023-06-22T20:10:33;18.35;;;10.88;;
49440;SDS011;35317;51.978;6.296;2023-06-22T20:15:42;18.10;;;9.32;;
49440;SDS011;35317;51.978;6.296;2023-06-22T20:20:51;16.25;;;9.30;;
49440;SDS011;35317;51.978;6.296;2023-06-22T20:25:53;13.32;;;7.50;;
49440;SDS011;35317;51.978;6.296;2023-06-22T20:31:08;11.27;;;7.10;;
49440;SDS011;35317;51.978;6.296;2023-06-22T20:36:12;11.20;;;6.35;;
49440;SDS011;35317;51.978;6.296;2023-06-22T20:41:17;10.55;;;6.60;;
49440;SDS011;35317;51.978;6.296;2023-06-22T20:46:22;10.10;;;5.95;;
49440;SDS011;35317;51.978;6.296;2023-06-22T20:51:24;11.10;;;6.43;;
49440;SDS011;35317;51.978;6.296;2023-06-22T20:56:25;8.77;;;5.90;;
49440;SDS011;35317;51.978;6.296;2023-06-22T21:01:26;9.50;;;5.78;;
49440;SDS011;35317;51.978;6.296;2023-06-22T21:06:33;9.48;;;6.32;;
49440;SDS011;35317;51.978;6.296;2023-06-22T21:17:37;11.07;;;6.78;;
49440;SDS011;35317;51.978;6.296;2023-06-22T21:22:39;9.02;;;6.07;;
49440;SDS011;35317;51.978;6.296;2023-06-22T21:27:40;12.57;;;7.40;;
49440;SDS011;35317;51.978;6.296;2023-06-22T21:32:43;9.60;;;6.23;;
49440;SDS011;35317;51.978;6.296;2023-06-22T21:37:44;10.93;;;6.85;;
49440;SDS011;35317;51.978;6.296;2023-06-22T21:42:49;12.25;;;6.65;;
49440;SDS011;35317;51.978;6.296;2023-06-22T21:48:00;13.00;;;6.72;;
49440;SDS011;35317;51.978;6.296;2023-06-22T21:53:00;14.82;;;7.28;;
49440;SDS011;35317;51.978;6.296;2023-06-22T21:58:02;13.57;;;8.00;;
49440;SDS011;35317;51.978;6.296;2023-06-22T22:03:02;19.23;;;8.80;;
49440;SDS011;35317;51.978;6.296;2023-06-22T22:08:03;16.38;;;8.82;;
49440;SDS011;35317;51.978;6.296;2023-06-22T22:13:04;16.35;;;9.27;;
49440;SDS011;35317;51.978;6.296;2023-06-22T22:18:05;17.65;;;9.32;;
49440;SDS011;35317;51.978;6.296;2023-06-22T22:23:07;19.75;;;9.70;;
49440;SDS011;35317;51.978;6.296;2023-06-22T22:28:08;18.15;;;9.90;;
49440;SDS011;35317;51.978;6.296;2023-06-22T22:33:09;16.55;;;9.30;;
49440;SDS011;35317;51.978;6.296;2023-06-22T22:38:09;15.20;;;9.05;;
49440;SDS011;35317;51.978;6.296;2023-06-22T22:43:10;15.13;;;8.57;;
49440;SDS011;35317;51.978;6.296;2023-06-22T22:48:11;18.60;;;8.70;;
49440;SDS011;35317;51.978;6.296;2023-06-22T22:53:12;19.30;;;9.35;;
49440;SDS011;35317;51.978;6.296;2023-06-22T22:58:13;15.80;;;8.55;;
49440;SDS011;35317;51.978;6.296;2023-06-22T23:03:14;18.23;;;9.60;;
49440;SDS011;35317;51.978;6.296;2023-06-22T23:08:15;15.95;;;9.35;;
49440;SDS011;35317;51.978;6.296;2023-06-22T23:13:16;17.55;;;8.70;;
49440;SDS011;35317;51.978;6.296;2023-06-22T23:18:17;17.95;;;8.48;;
49440;SDS011;35317;51.978;6.296;2023-06-22T23:23:18;16.30;;;8.70;;
49440;SDS011;35317;51.978;6.296;2023-06-22T23:28:19;20.42;;;8.63;;
49440;SDS011;35317;51.978;6.296;2023-06-22T23:33:20;18.92;;;8.55;;
49440;SDS011;35317;51.978;6.296;2023-06-22T23:38:21;14.00;;;8.00;;
49440;SDS011;35317;51.978;6.296;2023-06-22T23:43:23;19.10;;;8.32;;
49440;SDS011;35317;51.978;6.296;2023-06-22T23:48:25;14.40;;;7.78;;
49440;SDS011;35317;51.978;6.296;2023-06-22T23:53:26;16.90;;;7.82;;
49440;SDS011;35317;51.978;6.296;2023-06-22T23:58:26;19.42;;;8.93;;
